createdAt,value
2023-02-11T00:01:19.608Z,5.59
2023-02-11T00:03:46.779Z,5.61
2023-02-11T00:06:13.883Z,5.66
2023-02-11T00:08:40.865Z,5.70
2023-02-11T00:11:07.919Z,5.72
2023-02-11T00:13:34.877Z,5.71
2023-02-11T00:16:07.335Z,5.70
2023-02-11T00:18:34.329Z,5.79
2023-02-11T00:21:16.444Z,5.82
2023-02-11T00:23:44.046Z,5.82
2023-02-11T00:26:15.875Z,5.88
2023-02-11T00:28:43.840Z,5.93
2023-02-11T00:31:12.208Z,5.97
2023-02-11T00:33:39.189Z,6.03
2023-02-11T00:36:13.801Z,6.04
2023-02-11T00:38:43.841Z,6.11
2023-02-11T00:41:13.102Z,6.19
2023-02-11T00:43:40.770Z,6.26
2023-02-11T00:46:09.773Z,6.29
2023-02-11T00:48:36.980Z,6.33
2023-02-11T00:51:04.365Z,6.36
2023-02-11T00:53:32.953Z,6.40
2023-02-11T00:56:01.192Z,6.44
2023-02-11T00:58:28.648Z,6.45
2023-02-11T01:00:56.527Z,6.50
2023-02-11T01:03:24.802Z,6.55
2023-02-11T01:05:51.959Z,6.62
2023-02-11T01:08:19.266Z,6.65
2023-02-11T01:10:53.368Z,6.65
2023-02-11T01:13:21.165Z,6.71
2023-02-11T01:15:48.348Z,6.75
2023-02-11T01:18:15.446Z,6.75
2023-02-11T01:20:42.723Z,6.76
2023-02-11T01:23:09.564Z,6.79
2023-02-11T01:25:36.411Z,6.84
2023-02-11T01:28:04.186Z,6.87
2023-02-11T01:30:31.750Z,6.87
2023-02-11T01:32:58.686Z,6.85
2023-02-11T01:35:25.552Z,6.88
2023-02-11T01:37:52.662Z,6.92
2023-02-11T01:40:19.770Z,6.93
2023-02-11T01:42:49.402Z,6.95
2023-02-11T01:45:46.324Z,6.95
2023-02-11T01:48:18.146Z,6.96
2023-02-11T01:50:46.976Z,7.03
2023-02-11T01:53:33.588Z,7.05
2023-02-11T01:56:18.915Z,7.09
2023-02-11T01:58:49.158Z,7.12
2023-02-11T02:01:20.000Z,7.18
2023-02-11T02:03:50.132Z,7.26
2023-02-11T02:06:23.115Z,7.27
2023-02-11T02:09:00.250Z,7.30
2023-02-11T02:11:29.662Z,7.35
2023-02-11T02:13:56.810Z,7.37
2023-02-11T02:16:34.482Z,7.42
2023-02-11T02:19:20.425Z,7.38
2023-02-11T02:22:05.592Z,7.39
2023-02-11T02:24:57.876Z,7.42
2023-02-11T02:27:48.387Z,7.42
2023-02-11T02:30:49.511Z,7.43
2023-02-11T02:33:23.054Z,7.46
2023-02-11T02:36:14.150Z,7.45
2023-02-11T02:39:04.326Z,7.44
2023-02-11T02:41:34.454Z,7.49
2023-02-11T02:44:02.169Z,7.50
2023-02-11T02:46:32.738Z,7.50
2023-02-11T02:48:59.982Z,7.47
2023-02-11T02:52:12.052Z,7.47
2023-02-11T02:55:03.942Z,7.49
2023-02-11T02:57:48.997Z,7.50
2023-02-11T03:00:54.156Z,7.50
2023-02-11T03:03:36.059Z,7.51
2023-02-11T03:06:30.595Z,7.53
2023-02-11T03:09:06.089Z,7.53
2023-02-11T03:11:34.836Z,7.55
2023-02-11T03:14:04.672Z,7.57
2023-02-11T03:16:38.428Z,7.56
2023-02-11T03:19:26.589Z,7.57
2023-02-11T03:21:53.732Z,7.57
2023-02-11T03:24:34.284Z,7.58
2023-02-11T03:27:32.680Z,7.57
2023-02-11T03:30:06.460Z,7.57
2023-02-11T03:32:39.483Z,7.59
2023-02-11T03:35:27.297Z,7.58
2023-02-11T03:38:00.522Z,7.60
2023-02-11T03:40:32.694Z,7.61
2023-02-11T03:43:08.502Z,7.65
2023-02-11T03:45:39.070Z,7.65
2023-02-11T03:48:16.389Z,7.66
2023-02-11T03:50:45.727Z,7.67
2023-02-11T03:53:14.948Z,7.68
2023-02-11T03:55:44.096Z,7.70
2023-02-11T03:58:11.238Z,7.70
2023-02-11T04:00:41.101Z,7.69
2023-02-11T04:03:09.265Z,7.69
2023-02-11T04:05:36.405Z,7.71
2023-02-11T04:08:03.718Z,7.72
2023-02-11T04:10:30.737Z,7.71
2023-02-11T04:12:57.979Z,7.71
2023-02-11T04:15:25.438Z,7.72
2023-02-11T04:17:52.339Z,7.72
2023-02-11T04:20:19.382Z,7.74
2023-02-11T04:22:46.356Z,7.75
2023-02-11T04:25:13.168Z,7.73
2023-02-11T04:27:40.095Z,7.73
2023-02-11T04:30:10.065Z,7.71
2023-02-11T04:32:37.114Z,7.73
2023-02-11T04:35:04.283Z,7.75
2023-02-11T04:37:31.148Z,7.74
2023-02-11T04:39:58.059Z,7.75
2023-02-11T04:42:25.135Z,7.76
2023-02-11T04:44:52.110Z,7.73
2023-02-11T04:47:19.516Z,7.77
2023-02-11T04:49:46.504Z,7.78
2023-02-11T04:52:13.310Z,7.77
2023-02-11T04:54:40.699Z,7.80
2023-02-11T04:57:07.652Z,7.82
2023-02-11T04:59:34.597Z,7.81
2023-02-11T05:02:02.156Z,7.80
2023-02-11T05:04:29.038Z,7.83
2023-02-11T05:06:58.524Z,7.86
2023-02-11T05:09:25.599Z,7.88
2023-02-11T05:11:53.666Z,7.91
2023-02-11T05:14:20.728Z,7.92
2023-02-11T05:16:47.879Z,7.92
2023-02-11T05:19:14.789Z,7.94
2023-02-11T05:21:53.162Z,7.95
2023-02-11T05:24:24.054Z,7.94
2023-02-11T05:26:50.950Z,7.91
2023-02-11T05:29:17.802Z,7.90
2023-02-11T05:31:44.859Z,7.86
2023-02-11T05:34:11.815Z,7.84
2023-02-11T05:36:38.676Z,7.81
2023-02-11T05:39:05.650Z,7.78
2023-02-11T05:41:32.713Z,7.77
2023-02-11T05:43:59.625Z,7.77
2023-02-11T05:46:26.592Z,7.76
2023-02-11T05:48:54.408Z,7.71
2023-02-11T05:51:21.267Z,7.62
2023-02-11T05:53:48.188Z,7.53
2023-02-11T05:56:15.225Z,7.46
2023-02-11T05:58:42.042Z,7.39
2023-02-11T06:01:08.992Z,7.35
2023-02-11T06:03:35.937Z,7.34
2023-02-11T06:06:02.758Z,7.27
2023-02-11T06:08:29.589Z,7.18
2023-02-11T06:10:56.476Z,7.16
2023-02-11T06:13:23.334Z,7.13
2023-02-11T06:16:00.854Z,7.11
2023-02-11T06:18:29.521Z,7.11
2023-02-11T06:20:56.517Z,7.11
2023-02-11T06:23:23.577Z,7.10
2023-02-11T06:25:51.242Z,7.11
2023-02-11T06:28:18.934Z,7.17
2023-02-11T06:30:46.093Z,7.18
2023-02-11T06:33:13.019Z,7.24
2023-02-11T06:35:40.185Z,7.25
2023-02-11T06:38:07.335Z,7.26
2023-02-11T06:40:34.319Z,7.27
2023-02-11T06:43:01.252Z,7.30
2023-02-11T06:45:28.271Z,7.33
2023-02-11T06:47:55.177Z,7.34
2023-02-11T06:50:22.242Z,7.36
2023-02-11T06:52:49.220Z,7.37
2023-02-11T06:55:16.116Z,7.38
2023-02-11T06:57:43.311Z,7.39
2023-02-11T07:00:11.226Z,7.41
2023-02-11T07:02:38.076Z,7.42
2023-02-11T07:05:06.843Z,7.42
2023-02-11T07:07:34.546Z,7.43
2023-02-11T07:10:03.206Z,7.45
2023-02-11T07:12:31.162Z,7.47
2023-02-11T07:14:58.520Z,7.50
2023-02-11T07:17:25.360Z,7.52
2023-02-11T07:19:52.645Z,7.52
2023-02-11T07:22:19.865Z,7.56
2023-02-11T07:24:46.773Z,7.57
2023-02-11T07:27:13.737Z,7.57
2023-02-11T07:29:42.672Z,7.55
2023-02-11T07:32:10.611Z,7.51
2023-02-11T07:34:37.621Z,7.47
2023-02-11T07:37:05.001Z,7.45
2023-02-11T07:39:32.174Z,7.42
2023-02-11T07:41:59.854Z,7.40
2023-02-11T07:44:27.618Z,7.41
2023-02-11T07:46:54.646Z,7.44
2023-02-11T07:49:21.519Z,7.46
2023-02-11T07:51:50.069Z,7.44
2023-02-11T07:54:17.650Z,7.41
2023-02-11T07:56:44.577Z,7.37
2023-02-11T07:59:12.968Z,7.34
2023-02-11T08:01:40.190Z,7.31
2023-02-11T08:04:07.108Z,7.29
2023-02-11T08:06:35.500Z,7.25
2023-02-11T08:09:07.362Z,7.30
2023-02-11T08:11:34.254Z,7.32
2023-02-11T08:14:01.504Z,7.36
2023-02-11T08:16:31.009Z,7.42
2023-02-11T08:19:02.094Z,7.48
2023-02-11T08:21:30.098Z,7.56
2023-02-11T08:23:57.662Z,7.62
2023-02-11T08:26:30.225Z,7.68
2023-02-11T08:28:59.030Z,7.71
2023-02-11T08:31:40.759Z,7.80
2023-02-11T08:34:08.322Z,7.87
2023-02-11T08:36:39.123Z,7.91
2023-02-11T08:39:19.334Z,7.96
2023-02-11T08:41:52.530Z,7.99
2023-02-11T08:44:20.771Z,8.01
2023-02-11T08:46:48.546Z,8.11
2023-02-11T08:49:16.818Z,8.13
2023-02-11T08:51:44.452Z,8.23
2023-02-11T08:54:11.829Z,8.27
2023-02-11T08:56:39.126Z,8.37
2023-02-11T08:59:07.398Z,8.43
2023-02-11T09:01:34.828Z,8.49
2023-02-11T09:04:02.153Z,8.55
2023-02-11T09:06:29.537Z,8.58
2023-02-11T09:08:59.105Z,8.63
2023-02-11T09:11:35.311Z,8.63
2023-02-11T09:14:04.117Z,8.66
2023-02-11T09:16:34.031Z,8.67
2023-02-11T09:19:03.445Z,8.74
2023-02-11T09:21:30.823Z,8.77
2023-02-11T09:23:57.697Z,8.79
2023-02-11T09:26:27.910Z,8.78
2023-02-11T09:28:55.253Z,8.87
2023-02-11T09:31:24.897Z,8.90
2023-02-11T09:33:54.845Z,8.89
2023-02-11T09:36:25.565Z,8.96
2023-02-11T09:38:53.470Z,8.97
2023-02-11T09:41:23.345Z,8.99
2023-02-11T09:44:03.020Z,9.03
2023-02-11T09:46:34.550Z,9.04
2023-02-11T09:49:02.773Z,9.06
2023-02-11T09:51:39.458Z,9.12
2023-02-11T09:54:15.551Z,9.20
2023-02-11T09:56:42.695Z,9.24
2023-02-11T09:59:17.674Z,9.22
2023-02-11T10:01:51.173Z,9.16
2023-02-11T10:04:56.952Z,9.12
2023-02-11T10:07:25.483Z,9.09
2023-02-11T10:10:01.615Z,9.11
2023-02-11T10:12:55.320Z,9.14
2023-02-11T10:15:45.168Z,9.25
2023-02-11T10:18:30.634Z,9.38
2023-02-11T10:21:00.141Z,9.41
2023-02-11T10:23:33.639Z,9.43
2023-02-11T10:26:01.534Z,9.45
2023-02-11T10:28:32.766Z,9.45
2023-02-11T10:31:03.648Z,9.40
2023-02-11T10:33:51.595Z,9.49
2023-02-11T10:36:21.285Z,9.55
2023-02-11T10:38:48.110Z,9.51
2023-02-11T10:41:20.799Z,9.50
2023-02-11T10:43:48.237Z,9.51
2023-02-11T10:46:21.256Z,9.58
2023-02-11T10:48:53.304Z,9.60
2023-02-11T10:51:22.151Z,9.56
2023-02-11T10:54:13.812Z,9.49
2023-02-11T10:56:47.682Z,9.53
2023-02-11T10:59:31.926Z,9.59
2023-02-11T11:02:01.076Z,9.71
2023-02-11T11:04:30.821Z,9.82
2023-02-11T11:07:25.638Z,10.01
2023-02-11T11:10:05.199Z,10.09
2023-02-11T11:12:47.447Z,10.35
2023-02-11T11:15:23.695Z,10.37
2023-02-11T11:18:20.899Z,10.48
2023-02-11T11:21:05.869Z,10.53
2023-02-11T11:23:36.494Z,10.57
2023-02-11T11:26:12.809Z,10.72
2023-02-11T11:28:50.577Z,10.81
2023-02-11T11:31:22.210Z,10.69
2023-02-11T11:33:53.363Z,10.69
2023-02-11T11:36:23.841Z,10.83
2023-02-11T11:38:55.773Z,10.91
2023-02-11T11:41:34.875Z,11.00
2023-02-11T11:44:39.898Z,11.15
2023-02-11T11:47:13.446Z,10.97
2023-02-11T11:49:53.319Z,10.92
2023-02-11T11:52:32.210Z,10.98
2023-02-11T11:55:07.923Z,11.11
2023-02-11T11:57:38.741Z,11.11
2023-02-11T12:00:14.893Z,11.04
2023-02-11T12:03:00.915Z,10.98
2023-02-11T12:05:42.402Z,10.94
2023-02-11T12:08:21.355Z,10.95
2023-02-11T12:11:12.554Z,10.97
2023-02-11T12:13:54.711Z,10.85
2023-02-11T12:16:50.439Z,10.81
2023-02-11T12:19:35.533Z,10.79
2023-02-11T12:22:35.585Z,10.65
2023-02-11T12:25:26.693Z,10.90
2023-02-11T12:28:25.741Z,10.99
2023-02-11T12:31:07.840Z,10.97
2023-02-11T12:33:38.002Z,10.89
2023-02-11T12:36:20.223Z,10.87
2023-02-11T12:39:23.379Z,10.78
2023-02-11T12:42:34.184Z,10.79
2023-02-11T12:45:14.021Z,10.77
2023-02-11T12:48:11.554Z,10.65
2023-02-11T12:51:09.193Z,10.61
2023-02-11T12:53:42.271Z,10.60
2023-02-11T12:56:27.004Z,10.70
2023-02-11T12:58:57.841Z,10.60
2023-02-11T13:01:44.890Z,10.53
2023-02-11T13:04:54.162Z,10.56
2023-02-11T13:07:32.448Z,10.60
2023-02-11T13:10:26.265Z,10.63
2023-02-11T13:13:15.004Z,10.61
2023-02-11T13:15:46.781Z,10.68
2023-02-11T13:18:25.886Z,10.61
2023-02-11T13:21:16.579Z,10.49
2023-02-11T13:24:09.118Z,10.56
2023-02-11T13:27:02.026Z,10.51
2023-02-11T13:29:50.934Z,10.43
2023-02-11T13:32:17.895Z,10.34
2023-02-11T13:34:44.700Z,10.23
2023-02-11T13:37:39.778Z,10.19
2023-02-11T13:40:20.218Z,10.17
2023-02-11T13:42:53.176Z,10.33
2023-02-11T13:45:43.884Z,10.37
2023-02-11T13:48:27.700Z,10.24
2023-02-11T13:50:58.760Z,10.22
2023-02-11T13:53:27.618Z,10.26
2023-02-11T13:56:24.013Z,10.29
2023-02-11T13:58:51.630Z,10.32
2023-02-11T14:02:12.550Z,10.27
2023-02-11T14:05:36.843Z,10.36
2023-02-11T14:08:28.553Z,10.29
2023-02-11T14:11:30.649Z,10.17
2023-02-11T14:14:14.633Z,10.19
2023-02-11T14:17:00.296Z,10.27
2023-02-11T14:19:53.844Z,10.19
2023-02-11T14:22:28.761Z,10.30
2023-02-11T14:24:55.701Z,10.32
2023-02-11T14:27:40.289Z,10.22
2023-02-11T14:30:12.552Z,10.27
2023-02-11T14:33:09.347Z,10.26
2023-02-11T14:36:00.381Z,10.29
2023-02-11T14:38:34.276Z,10.28
2023-02-11T14:41:07.846Z,10.25
2023-02-11T14:43:43.247Z,10.25
2023-02-11T14:46:10.426Z,10.31
2023-02-11T14:48:39.450Z,10.44
2023-02-11T14:51:27.151Z,10.38
2023-02-11T14:54:01.965Z,10.49
2023-02-11T14:56:34.601Z,10.57
2023-02-11T14:59:02.837Z,10.60
2023-02-11T15:01:32.830Z,10.70
2023-02-11T15:04:01.632Z,10.75
2023-02-11T15:06:33.242Z,10.88
2023-02-11T15:09:08.059Z,10.73
2023-02-11T15:11:40.365Z,10.58
2023-02-11T15:14:17.002Z,10.31
2023-02-11T15:16:46.188Z,10.18
2023-02-11T15:19:35.866Z,10.14
2023-02-11T15:22:07.500Z,10.15
2023-02-11T15:24:35.642Z,10.00
2023-02-11T15:27:15.622Z,9.73
2023-02-11T15:29:51.989Z,9.81
2023-02-11T15:32:24.599Z,9.79
2023-02-11T15:34:53.951Z,9.72
2023-02-11T15:37:32.354Z,9.72
2023-02-11T15:40:19.130Z,9.65
2023-02-11T15:43:03.663Z,9.57
2023-02-11T15:45:44.578Z,9.51
2023-02-11T15:48:22.758Z,9.38
2023-02-11T15:50:59.178Z,9.34
2023-02-11T15:53:31.358Z,9.27
2023-02-11T15:56:21.443Z,9.24
2023-02-11T15:58:49.869Z,9.15
2023-02-11T16:01:17.249Z,9.21
2023-02-11T16:03:50.033Z,9.17
2023-02-11T16:06:21.851Z,9.13
2023-02-11T16:09:08.155Z,9.08
2023-02-11T16:11:53.761Z,9.05
2023-02-11T16:14:34.452Z,8.98
2023-02-11T16:17:26.144Z,8.91
2023-02-11T16:19:53.862Z,8.90
2023-02-11T16:22:27.744Z,8.84
2023-02-11T16:24:59.823Z,8.82
2023-02-11T16:27:34.173Z,8.77
2023-02-11T16:30:01.810Z,8.75
2023-02-11T16:32:30.539Z,8.67
2023-02-11T16:35:00.947Z,8.60
2023-02-11T16:37:28.253Z,8.55
2023-02-11T16:39:56.200Z,8.50
2023-02-11T16:42:23.560Z,8.43
2023-02-11T16:44:50.537Z,8.28
2023-02-11T16:47:25.316Z,8.18
2023-02-11T16:49:52.962Z,8.11
2023-02-11T16:52:22.291Z,8.01
2023-02-11T16:54:50.648Z,7.81
2023-02-11T16:57:28.103Z,7.62
2023-02-11T16:59:56.762Z,7.56
2023-02-11T17:02:27.408Z,7.46
2023-02-11T17:04:56.393Z,7.32
2023-02-11T17:07:23.313Z,7.28
2023-02-11T17:09:51.780Z,7.18
2023-02-11T17:12:19.244Z,7.10
2023-02-11T17:14:46.318Z,7.02
2023-02-11T17:17:13.930Z,6.97
2023-02-11T17:19:40.735Z,6.91
2023-02-11T17:22:07.791Z,6.81
2023-02-11T17:24:34.908Z,6.76
2023-02-11T17:27:02.286Z,6.75
2023-02-11T17:29:29.114Z,6.70
2023-02-11T17:31:57.152Z,6.68
2023-02-11T17:34:24.215Z,6.61
2023-02-11T17:36:51.906Z,6.55
2023-02-11T17:39:21.128Z,6.53
2023-02-11T17:41:48.543Z,6.52
2023-02-11T17:44:16.556Z,6.53
2023-02-11T17:46:43.758Z,6.46
2023-02-11T17:49:12.179Z,6.53
2023-02-11T17:51:39.845Z,6.51
2023-02-11T17:54:16.956Z,6.47
2023-02-11T17:56:44.998Z,6.43
2023-02-11T17:59:13.341Z,6.31
2023-02-11T18:01:41.841Z,6.20
2023-02-11T18:04:13.993Z,6.09
2023-02-11T18:06:41.234Z,6.02
2023-02-11T18:09:08.112Z,5.96
2023-02-11T18:11:38.121Z,5.93
2023-02-11T18:14:07.972Z,5.85
2023-02-11T18:16:36.795Z,5.81
2023-02-11T18:19:04.292Z,5.77
2023-02-11T18:21:31.479Z,5.77
2023-02-11T18:24:01.155Z,5.69
2023-02-11T18:26:31.589Z,5.66
2023-02-11T18:29:00.225Z,5.64
2023-02-11T18:31:28.302Z,5.60
2023-02-11T18:33:55.566Z,5.54
2023-02-11T18:36:23.453Z,5.46
2023-02-11T18:38:52.683Z,5.43
2023-02-11T18:41:20.049Z,5.41
2023-02-11T18:43:47.074Z,5.40
2023-02-11T18:46:15.621Z,5.42
2023-02-11T18:48:44.869Z,5.37
2023-02-11T18:51:18.483Z,5.33
2023-02-11T18:53:45.901Z,5.33
2023-02-11T18:56:15.744Z,5.32
2023-02-11T18:58:43.024Z,5.27
2023-02-11T19:01:18.573Z,5.24
2023-02-11T19:03:45.860Z,5.24
2023-02-11T19:06:34.755Z,5.18
2023-02-11T19:09:06.488Z,5.13
2023-02-11T19:11:54.297Z,5.08
2023-02-11T19:14:26.800Z,5.05
2023-02-11T19:16:56.410Z,5.02
2023-02-11T19:19:25.060Z,5.01
2023-02-11T19:21:52.176Z,4.98
2023-02-11T19:24:19.998Z,5.04
2023-02-11T19:26:48.968Z,5.04
2023-02-11T19:29:16.643Z,5.00
2023-02-11T19:31:44.046Z,4.96
2023-02-11T19:34:14.132Z,4.92
2023-02-11T19:36:41.454Z,4.86
2023-02-11T19:39:08.866Z,4.84
2023-02-11T19:41:36.183Z,4.82
2023-02-11T19:44:04.514Z,4.80
2023-02-11T19:46:36.480Z,4.81
2023-02-11T19:49:04.691Z,4.84
2023-02-11T19:51:33.846Z,4.88
2023-02-11T19:54:00.836Z,4.95
2023-02-11T19:56:31.284Z,4.99
2023-02-11T19:58:58.389Z,5.00
2023-02-11T20:01:26.301Z,4.96
2023-02-11T20:03:55.364Z,4.94
2023-02-11T20:06:25.179Z,4.93
2023-02-11T20:08:58.617Z,4.97
2023-02-11T20:11:28.249Z,4.98
2023-02-11T20:13:56.500Z,4.99
2023-02-11T20:16:40.702Z,5.03
2023-02-11T20:19:17.008Z,5.02
2023-02-11T20:21:47.192Z,5.01
2023-02-11T20:24:15.752Z,5.02
2023-02-11T20:26:42.923Z,4.97
2023-02-11T20:29:09.874Z,4.97
2023-02-11T20:31:37.155Z,5.00
2023-02-11T20:34:04.575Z,5.02
2023-02-11T20:36:35.742Z,4.88
2023-02-11T20:39:05.007Z,4.77
2023-02-11T20:41:34.910Z,4.69
2023-02-11T20:44:04.914Z,4.62
2023-02-11T20:46:34.044Z,4.51
2023-02-11T20:49:02.102Z,4.46
2023-02-11T20:51:31.760Z,4.44
2023-02-11T20:53:59.312Z,4.32
2023-02-11T20:56:33.140Z,4.33
2023-02-11T20:59:02.273Z,4.29
2023-02-11T21:01:40.293Z,4.28
2023-02-11T21:04:12.437Z,4.22
2023-02-11T21:06:45.010Z,4.20
2023-02-11T21:09:14.711Z,4.18
2023-02-11T21:11:42.175Z,4.19
2023-02-11T21:14:10.883Z,4.23
2023-02-11T21:16:39.264Z,4.28
2023-02-11T21:19:06.934Z,4.31
2023-02-11T21:21:36.324Z,4.34
2023-02-11T21:24:03.776Z,4.32
2023-02-11T21:26:30.782Z,4.29
2023-02-11T21:28:57.759Z,4.14
2023-02-11T21:31:27.000Z,4.03
2023-02-11T21:33:56.684Z,3.92
2023-02-11T21:36:24.439Z,3.83
2023-02-11T21:38:51.986Z,3.73
2023-02-11T21:41:22.579Z,3.69
2023-02-11T21:43:50.447Z,3.65
2023-02-11T21:46:18.668Z,3.57
2023-02-11T21:48:46.067Z,3.53
2023-02-11T21:51:22.788Z,3.50
2023-02-11T21:53:54.541Z,3.62
2023-02-11T21:56:22.240Z,3.66
2023-02-11T21:58:53.355Z,3.72
2023-02-11T22:01:23.077Z,3.82
2023-02-11T22:03:50.391Z,3.92
2023-02-11T22:06:23.452Z,3.91
2023-02-11T22:08:50.856Z,3.89
2023-02-11T22:11:19.401Z,3.87
2023-02-11T22:13:47.030Z,3.83
2023-02-11T22:16:16.780Z,3.85
2023-02-11T22:18:47.137Z,3.99
2023-02-11T22:21:16.903Z,4.14
2023-02-11T22:23:44.397Z,4.17
2023-02-11T22:26:16.636Z,4.19
2023-02-11T22:28:44.567Z,4.17
2023-02-11T22:31:14.118Z,4.12
2023-02-11T22:33:41.732Z,4.05
2023-02-11T22:36:14.664Z,3.98
2023-02-11T22:38:41.548Z,3.92
2023-02-11T22:41:10.053Z,3.85
2023-02-11T22:43:38.151Z,3.85
2023-02-11T22:46:07.368Z,3.98
2023-02-11T22:48:35.711Z,4.13
2023-02-11T22:51:11.586Z,4.29
2023-02-11T22:53:39.307Z,4.38
2023-02-11T22:56:09.130Z,4.43
2023-02-11T22:58:36.597Z,4.48
2023-02-11T23:01:05.111Z,4.51
2023-02-11T23:03:33.338Z,4.51
2023-02-11T23:06:01.356Z,4.54
2023-02-11T23:08:29.448Z,4.60
2023-02-11T23:10:56.738Z,4.64
2023-02-11T23:13:23.597Z,4.69
2023-02-11T23:15:50.668Z,4.69
2023-02-11T23:18:17.561Z,4.71
2023-02-11T23:20:45.245Z,4.72
2023-02-11T23:23:12.536Z,4.71
2023-02-11T23:25:44.187Z,4.66
2023-02-11T23:28:12.032Z,4.62
2023-02-11T23:30:39.574Z,4.57
2023-02-11T23:33:06.477Z,4.55
2023-02-11T23:35:33.429Z,4.54
2023-02-11T23:38:00.502Z,4.51
2023-02-11T23:40:27.472Z,4.39
2023-02-11T23:42:54.478Z,4.33
2023-02-11T23:45:21.720Z,4.31
2023-02-11T23:47:48.654Z,4.30
2023-02-11T23:50:15.764Z,4.26
2023-02-11T23:52:42.682Z,4.26
2023-02-11T23:55:09.824Z,4.22
2023-02-11T23:57:36.983Z,4.19
